sensor_id;sensor_type;location;lat;lon;timestamp;temperature;humidity
11242;DHT22;5678;52.370;9.006;2023-01-04T00:01:22;6.60;99.90
11242;DHT22;5678;52.370;9.006;2023-01-04T00:03:50;6.60;99.90
11242;DHT22;5678;52.370;9.006;2023-01-04T00:06:18;6.70;99.90
11242;DHT22;5678;52.370;9.006;2023-01-04T00:08:47;6.60;99.90
11242;DHT22;5678;52.370;9.006;2023-01-04T00:11:17;6.60;99.90
11242;DHT22;5678;52.370;9.006;2023-01-04T00:13:45;6.50;99.90
11242;DHT22;5678;52.370;9.006;2023-01-04T00:16:18;6.50;99.90
11242;DHT22;5678;52.370;9.006;2023-01-04T00:18:46;6.50;99.90
11242;DHT22;5678;52.370;9.006;2023-01-04T00:21:16;6.40;99.90
11242;DHT22;5678;52.370;9.006;2023-01-04T00:23:45;6.60;99.90
11242;DHT22;5678;52.370;9.006;2023-01-04T00:26:15;6.30;99.90
11242;DHT22;5678;52.370;9.006;2023-01-04T00:28:45;6.00;99.90
11242;DHT22;5678;52.370;9.006;2023-01-04T00:31:22;6.30;99.90
11242;DHT22;5678;52.370;9.006;2023-01-04T00:33:51;6.30;99.90
11242;DHT22;5678;52.370;9.006;2023-01-04T00:36:20;6.70;99.90
11242;DHT22;5678;52.370;9.006;2023-01-04T00:38:48;6.50;99.90
11242;DHT22;5678;52.370;9.006;2023-01-04T00:41:35;6.50;99.90
11242;DHT22;5678;52.370;9.006;2023-01-04T00:44:23;6.60;99.90
11242;DHT22;5678;52.370;9.006;2023-01-04T00:46:53;6.60;99.90
11242;DHT22;5678;52.370;9.006;2023-01-04T00:49:21;6.60;99.90
11242;DHT22;5678;52.370;9.006;2023-01-04T00:51:49;6.60;99.90
11242;DHT22;5678;52.370;9.006;2023-01-04T00:54:17;6.60;99.90
11242;DHT22;5678;52.370;9.006;2023-01-04T00:56:45;6.60;99.90
11242;DHT22;5678;52.370;9.006;2023-01-04T00:59:15;6.60;99.90
11242;DHT22;5678;52.370;9.006;2023-01-04T01:01:44;6.70;99.90
11242;DHT22;5678;52.370;9.006;2023-01-04T01:04:16;6.70;99.90
11242;DHT22;5678;52.370;9.006;2023-01-04T01:06:44;8.60;99.90
11242;DHT22;5678;52.370;9.006;2023-01-04T01:09:12;6.60;99.90
11242;DHT22;5678;52.370;9.006;2023-01-04T01:11:40;6.70;99.90
11242;DHT22;5678;52.370;9.006;2023-01-04T01:14:14;6.70;99.90
11242;DHT22;5678;52.370;9.006;2023-01-04T01:16:43;6.70;99.90
11242;DHT22;5678;52.370;9.006;2023-01-04T01:19:23;8.20;99.90
11242;DHT22;5678;52.370;9.006;2023-01-04T01:21:51;6.70;99.90
11242;DHT22;5678;52.370;9.006;2023-01-04T01:24:19;6.70;99.90
11242;DHT22;5678;52.370;9.006;2023-01-04T01:26:47;6.70;99.90
11242;DHT22;5678;52.370;9.006;2023-01-04T01:29:15;7.90;99.90
11242;DHT22;5678;52.370;9.006;2023-01-04T01:31:43;6.50;99.90
11242;DHT22;5678;52.370;9.006;2023-01-04T01:34:11;6.80;99.90
11242;DHT22;5678;52.370;9.006;2023-01-04T01:36:40;6.70;99.90
11242;DHT22;5678;52.370;9.006;2023-01-04T01:39:08;6.80;99.90
11242;DHT22;5678;52.370;9.006;2023-01-04T01:41:36;7.50;99.90
11242;DHT22;5678;52.370;9.006;2023-01-04T01:44:46;6.90;99.90
11242;DHT22;5678;52.370;9.006;2023-01-04T01:46:53;6.90;99.90
11242;DHT22;5678;52.370;9.006;2023-01-04T01:49:25;6.90;99.90
11242;DHT22;5678;52.370;9.006;2023-01-04T01:51:59;6.90;99.90
11242;DHT22;5678;52.370;9.006;2023-01-04T01:54:31;6.90;99.90
11242;DHT22;5678;52.370;9.006;2023-01-04T01:57:02;6.90;99.90
11242;DHT22;5678;52.370;9.006;2023-01-04T01:59:31;7.00;99.90
11242;DHT22;5678;52.370;9.006;2023-01-04T02:02:00;7.00;99.90
11242;DHT22;5678;52.370;9.006;2023-01-04T02:04:29;7.00;99.90
11242;DHT22;5678;52.370;9.006;2023-01-04T02:07:00;7.00;99.90
11242;DHT22;5678;52.370;9.006;2023-01-04T02:09:29;7.00;99.90
11242;DHT22;5678;52.370;9.006;2023-01-04T02:11:57;6.80;99.90
11242;DHT22;5678;52.370;9.006;2023-01-04T02:14:25;7.10;99.90
11242;DHT22;5678;52.370;9.006;2023-01-04T02:17:04;7.20;99.90
11242;DHT22;5678;52.370;9.006;2023-01-04T02:19:46;7.20;99.90
11242;DHT22;5678;52.370;9.006;2023-01-04T02:22:55;7.20;99.90
11242;DHT22;5678;52.370;9.006;2023-01-04T02:28:35;7.40;99.90
11242;DHT22;5678;52.370;9.006;2023-01-04T02:31:20;7.40;99.90
11242;DHT22;5678;52.370;9.006;2023-01-04T02:33:54;7.50;99.90
11242;DHT22;5678;52.370;9.006;2023-01-04T02:36:33;7.60;99.90
11242;DHT22;5678;52.370;9.006;2023-01-04T02:39:12;7.60;99.90
11242;DHT22;5678;52.370;9.006;2023-01-04T02:41:45;7.60;99.90
11242;DHT22;5678;52.370;9.006;2023-01-04T02:44:15;7.70;99.90
11242;DHT22;5678;52.370;9.006;2023-01-04T02:47:05;7.70;99.90
11242;DHT22;5678;52.370;9.006;2023-01-04T02:49:35;9.20;99.90
11242;DHT22;5678;52.370;9.006;2023-01-04T02:52:29;7.70;99.90
11242;DHT22;5678;52.370;9.006;2023-01-04T02:55:06;7.70;99.90
11242;DHT22;5678;52.370;9.006;2023-01-04T02:57:42;7.70;99.90
11242;DHT22;5678;52.370;9.006;2023-01-04T03:00:26;7.60;99.90
11242;DHT22;5678;52.370;9.006;2023-01-04T03:03:12;8.50;99.90
11242;DHT22;5678;52.370;9.006;2023-01-04T03:06:07;7.70;99.90
11242;DHT22;5678;52.370;9.006;2023-01-04T03:08:48;7.70;99.90
11242;DHT22;5678;52.370;9.006;2023-01-04T03:11:20;7.70;99.90
11242;DHT22;5678;52.370;9.006;2023-01-04T03:14:16;7.60;99.90
11242;DHT22;5678;52.370;9.006;2023-01-04T03:17:01;7.70;99.90
11242;DHT22;5678;52.370;9.006;2023-01-04T03:19:34;7.60;99.90
11242;DHT22;5678;52.370;9.006;2023-01-04T03:22:25;7.60;99.90
11242;DHT22;5678;52.370;9.006;2023-01-04T03:25:12;7.60;99.90
11242;DHT22;5678;52.370;9.006;2023-01-04T03:27:58;7.60;99.90
11242;DHT22;5678;52.370;9.006;2023-01-04T03:30:50;8.50;99.90
11242;DHT22;5678;52.370;9.006;2023-01-04T03:33:36;7.50;99.90
11242;DHT22;5678;52.370;9.006;2023-01-04T03:36:31;7.50;99.90
11242;DHT22;5678;52.370;9.006;2023-01-04T03:39:11;7.50;99.90
11242;DHT22;5678;52.370;9.006;2023-01-04T03:41:59;7.50;99.90
11242;DHT22;5678;52.370;9.006;2023-01-04T03:44:53;7.50;99.90
11242;DHT22;5678;52.370;9.006;2023-01-04T03:47:44;7.50;99.90
11242;DHT22;5678;52.370;9.006;2023-01-04T03:50:35;7.50;99.90
11242;DHT22;5678;52.370;9.006;2023-01-04T03:53:06;7.50;99.90
11242;DHT22;5678;52.370;9.006;2023-01-04T03:55:36;7.50;99.90
11242;DHT22;5678;52.370;9.006;2023-01-04T03:58:05;7.60;99.90
11242;DHT22;5678;52.370;9.006;2023-01-04T04:00:33;7.60;99.90
11242;DHT22;5678;52.370;9.006;2023-01-04T04:03:04;7.60;99.90
11242;DHT22;5678;52.370;9.006;2023-01-04T04:05:39;7.60;99.90
11242;DHT22;5678;52.370;9.006;2023-01-04T04:08:27;7.60;99.90
11242;DHT22;5678;52.370;9.006;2023-01-04T04:10:58;7.60;99.90
11242;DHT22;5678;52.370;9.006;2023-01-04T04:13:48;7.60;99.90
11242;DHT22;5678;52.370;9.006;2023-01-04T04:16:16;7.70;99.90
11242;DHT22;5678;52.370;9.006;2023-01-04T04:18:44;7.30;99.90
11242;DHT22;5678;52.370;9.006;2023-01-04T04:21:13;7.60;99.90
11242;DHT22;5678;52.370;9.006;2023-01-04T04:23:43;7.70;99.90
11242;DHT22;5678;52.370;9.006;2023-01-04T04:26:11;7.70;99.90
11242;DHT22;5678;52.370;9.006;2023-01-04T04:28:39;7.70;99.90
11242;DHT22;5678;52.370;9.006;2023-01-04T04:31:07;7.70;99.90
11242;DHT22;5678;52.370;9.006;2023-01-04T04:33:35;7.70;99.90
11242;DHT22;5678;52.370;9.006;2023-01-04T04:36:04;7.80;99.90
11242;DHT22;5678;52.370;9.006;2023-01-04T04:38:32;7.80;99.90
11242;DHT22;5678;52.370;9.006;2023-01-04T04:41:06;7.50;99.90
11242;DHT22;5678;52.370;9.006;2023-01-04T04:43:52;7.80;99.90
11242;DHT22;5678;52.370;9.006;2023-01-04T04:46:20;7.90;99.90
11242;DHT22;5678;52.370;9.006;2023-01-04T04:48:48;7.80;99.90
11242;DHT22;5678;52.370;9.006;2023-01-04T04:51:16;7.80;99.90
11242;DHT22;5678;52.370;9.006;2023-01-04T04:53:44;7.90;99.90
11242;DHT22;5678;52.370;9.006;2023-01-04T04:56:14;7.40;99.90
11242;DHT22;5678;52.370;9.006;2023-01-04T04:58:42;8.00;99.90
11242;DHT22;5678;52.370;9.006;2023-01-04T05:01:10;8.00;99.90
11242;DHT22;5678;52.370;9.006;2023-01-04T05:03:38;8.00;99.90
11242;DHT22;5678;52.370;9.006;2023-01-04T05:06:06;7.90;99.90
11242;DHT22;5678;52.370;9.006;2023-01-04T05:08:34;8.00;99.90
11242;DHT22;5678;52.370;9.006;2023-01-04T05:11:04;7.90;99.90
11242;DHT22;5678;52.370;9.006;2023-01-04T05:13:34;7.90;99.90
11242;DHT22;5678;52.370;9.006;2023-01-04T05:16:04;7.90;99.90
11242;DHT22;5678;52.370;9.006;2023-01-04T05:18:32;7.90;99.90
11242;DHT22;5678;52.370;9.006;2023-01-04T05:21:01;7.90;99.90
11242;DHT22;5678;52.370;9.006;2023-01-04T05:23:29;7.90;99.90
11242;DHT22;5678;52.370;9.006;2023-01-04T05:25:59;7.90;99.90
11242;DHT22;5678;52.370;9.006;2023-01-04T05:28:29;7.90;99.90
11242;DHT22;5678;52.370;9.006;2023-01-04T05:30:58;7.90;99.90
11242;DHT22;5678;52.370;9.006;2023-01-04T05:33:27;7.90;99.90
11242;DHT22;5678;52.370;9.006;2023-01-04T05:35:56;8.00;99.90
11242;DHT22;5678;52.370;9.006;2023-01-04T05:38:25;9.50;99.90
11242;DHT22;5678;52.370;9.006;2023-01-04T05:40:54;8.00;99.90
11242;DHT22;5678;52.370;9.006;2023-01-04T05:43:23;8.00;99.90
11242;DHT22;5678;52.370;9.006;2023-01-04T05:45:52;7.70;99.90
11242;DHT22;5678;52.370;9.006;2023-01-04T05:48:23;8.00;99.90
11242;DHT22;5678;52.370;9.006;2023-01-04T05:50:52;8.10;99.90
11242;DHT22;5678;52.370;9.006;2023-01-04T05:53:19;9.40;99.90
11242;DHT22;5678;52.370;9.006;2023-01-04T05:55:47;8.00;99.90
11242;DHT22;5678;52.370;9.006;2023-01-04T05:58:15;8.10;99.90
11242;DHT22;5678;52.370;9.006;2023-01-04T06:00:43;8.10;99.90
11242;DHT22;5678;52.370;9.006;2023-01-04T06:03:11;8.10;99.90
11242;DHT22;5678;52.370;9.006;2023-01-04T06:05:41;8.20;99.90
11242;DHT22;5678;52.370;9.006;2023-01-04T06:08:09;8.20;99.90
11242;DHT22;5678;52.370;9.006;2023-01-04T06:10:36;8.20;99.90
11242;DHT22;5678;52.370;9.006;2023-01-04T06:13:04;8.30;99.90
11242;DHT22;5678;52.370;9.006;2023-01-04T06:15:32;8.30;99.90
11242;DHT22;5678;52.370;9.006;2023-01-04T06:18:09;8.30;99.90
11242;DHT22;5678;52.370;9.006;2023-01-04T06:20:41;8.40;99.90
11242;DHT22;5678;52.370;9.006;2023-01-04T06:23:09;8.40;99.90
11242;DHT22;5678;52.370;9.006;2023-01-04T06:25:37;8.50;99.90
11242;DHT22;5678;52.370;9.006;2023-01-04T06:28:05;8.60;99.90
11242;DHT22;5678;52.370;9.006;2023-01-04T06:30:34;8.40;99.90
11242;DHT22;5678;52.370;9.006;2023-01-04T06:33:02;8.60;99.90
11242;DHT22;5678;52.370;9.006;2023-01-04T06:35:30;8.60;99.90
11242;DHT22;5678;52.370;9.006;2023-01-04T06:37:59;8.60;99.90
11242;DHT22;5678;52.370;9.006;2023-01-04T06:40:27;8.70;99.90
11242;DHT22;5678;52.370;9.006;2023-01-04T06:42:55;8.70;99.90
11242;DHT22;5678;52.370;9.006;2023-01-04T06:45:23;8.70;99.90
11242;DHT22;5678;52.370;9.006;2023-01-04T06:47:51;9.10;99.90
11242;DHT22;5678;52.370;9.006;2023-01-04T06:50:19;8.80;99.90
11242;DHT22;5678;52.370;9.006;2023-01-04T06:52:47;10.50;99.90
11242;DHT22;5678;52.370;9.006;2023-01-04T06:55:16;8.40;99.90
11242;DHT22;5678;52.370;9.006;2023-01-04T06:57:44;8.90;99.90
11242;DHT22;5678;52.370;9.006;2023-01-04T07:00:13;8.90;99.90
11242;DHT22;5678;52.370;9.006;2023-01-04T07:02:41;9.00;99.90
11242;DHT22;5678;52.370;9.006;2023-01-04T07:05:29;9.00;99.90
11242;DHT22;5678;52.370;9.006;2023-01-04T07:07:58;9.00;99.90
11242;DHT22;5678;52.370;9.006;2023-01-04T07:10:35;9.00;99.90
11242;DHT22;5678;52.370;9.006;2023-01-04T07:13:03;8.30;99.90
11242;DHT22;5678;52.370;9.006;2023-01-04T07:15:32;9.10;99.90
11242;DHT22;5678;52.370;9.006;2023-01-04T07:18:06;9.60;99.90
11242;DHT22;5678;52.370;9.006;2023-01-04T07:20:34;9.10;99.90
11242;DHT22;5678;52.370;9.006;2023-01-04T07:23:02;9.10;99.90
11242;DHT22;5678;52.370;9.006;2023-01-04T07:25:30;10.10;99.90
11242;DHT22;5678;52.370;9.006;2023-01-04T07:27:59;9.10;99.90
11242;DHT22;5678;52.370;9.006;2023-01-04T07:30:27;9.20;99.90
11242;DHT22;5678;52.370;9.006;2023-01-04T07:32:56;9.20;99.90
11242;DHT22;5678;52.370;9.006;2023-01-04T07:35:24;9.20;99.90
11242;DHT22;5678;52.370;9.006;2023-01-04T07:37:52;9.20;99.90
11242;DHT22;5678;52.370;9.006;2023-01-04T07:40:25;9.30;99.90
11242;DHT22;5678;52.370;9.006;2023-01-04T07:42:54;9.30;99.90
11242;DHT22;5678;52.370;9.006;2023-01-04T07:45:25;10.70;99.90
11242;DHT22;5678;52.370;9.006;2023-01-04T07:47:53;9.40;99.90
11242;DHT22;5678;52.370;9.006;2023-01-04T07:50:21;9.40;99.90
11242;DHT22;5678;52.370;9.006;2023-01-04T07:52:49;9.40;99.90
11242;DHT22;5678;52.370;9.006;2023-01-04T07:55:17;10.90;99.90
11242;DHT22;5678;52.370;9.006;2023-01-04T07:57:45;10.80;99.90
11242;DHT22;5678;52.370;9.006;2023-01-04T08:00:13;9.50;99.90
11242;DHT22;5678;52.370;9.006;2023-01-04T08:02:43;9.50;99.90
11242;DHT22;5678;52.370;9.006;2023-01-04T08:05:11;9.50;99.90
11242;DHT22;5678;52.370;9.006;2023-01-04T08:07:39;10.70;99.90
11242;DHT22;5678;52.370;9.006;2023-01-04T08:10:07;9.50;99.90
11242;DHT22;5678;52.370;9.006;2023-01-04T08:12:35;9.50;99.90
11242;DHT22;5678;52.370;9.006;2023-01-04T08:15:04;9.20;99.90
11242;DHT22;5678;52.370;9.006;2023-01-04T08:17:32;9.60;99.90
11242;DHT22;5678;52.370;9.006;2023-01-04T08:20:02;9.60;99.90
11242;DHT22;5678;52.370;9.006;2023-01-04T08:22:30;9.50;99.90
11242;DHT22;5678;52.370;9.006;2023-01-04T08:24:58;9.50;99.90
11242;DHT22;5678;52.370;9.006;2023-01-04T08:27:26;9.50;99.90
11242;DHT22;5678;52.370;9.006;2023-01-04T08:29:54;9.40;99.90
11242;DHT22;5678;52.370;9.006;2023-01-04T08:32:22;9.30;99.90
11242;DHT22;5678;52.370;9.006;2023-01-04T08:34:50;9.30;99.90
11242;DHT22;5678;52.370;9.006;2023-01-04T08:37:20;9.30;99.90
11242;DHT22;5678;52.370;9.006;2023-01-04T08:39:48;9.30;99.90
11242;DHT22;5678;52.370;9.006;2023-01-04T08:42:16;9.30;99.90
11242;DHT22;5678;52.370;9.006;2023-01-04T08:44:54;9.30;99.90
11242;DHT22;5678;52.370;9.006;2023-01-04T08:47:26;10.70;99.90
11242;DHT22;5678;52.370;9.006;2023-01-04T08:49:54;9.30;99.90
11242;DHT22;5678;52.370;9.006;2023-01-04T08:52:23;9.30;99.90
11242;DHT22;5678;52.370;9.006;2023-01-04T08:54:51;9.10;99.90
11242;DHT22;5678;52.370;9.006;2023-01-04T08:57:19;9.60;99.90
11242;DHT22;5678;52.370;9.006;2023-01-04T08:59:47;10.70;99.90
11242;DHT22;5678;52.370;9.006;2023-01-04T09:02:20;9.30;99.90
11242;DHT22;5678;52.370;9.006;2023-01-04T09:04:48;9.60;99.90
11242;DHT22;5678;52.370;9.006;2023-01-04T09:07:17;10.10;99.90
11242;DHT22;5678;52.370;9.006;2023-01-04T09:09:46;9.40;99.90
11242;DHT22;5678;52.370;9.006;2023-01-04T09:12:14;9.40;99.90
11242;DHT22;5678;52.370;9.006;2023-01-04T09:14:42;9.40;99.90
11242;DHT22;5678;52.370;9.006;2023-01-04T09:17:10;9.40;99.90
11242;DHT22;5678;52.370;9.006;2023-01-04T09:19:38;9.50;99.90
11242;DHT22;5678;52.370;9.006;2023-01-04T09:22:06;9.50;99.90
11242;DHT22;5678;52.370;9.006;2023-01-04T09:24:35;9.50;99.90
11242;DHT22;5678;52.370;9.006;2023-01-04T09:27:04;9.60;99.90
11242;DHT22;5678;52.370;9.006;2023-01-04T09:29:32;11.10;99.90
11242;DHT22;5678;52.370;9.006;2023-01-04T09:32:00;9.60;99.90
11242;DHT22;5678;52.370;9.006;2023-01-04T09:34:28;9.50;99.90
11242;DHT22;5678;52.370;9.006;2023-01-04T09:36:56;10.60;99.90
11242;DHT22;5678;52.370;9.006;2023-01-04T09:39:24;9.70;99.90
11242;DHT22;5678;52.370;9.006;2023-01-04T09:41:57;9.80;99.90
11242;DHT22;5678;52.370;9.006;2023-01-04T09:44:36;9.70;99.90
11242;DHT22;5678;52.370;9.006;2023-01-04T09:47:32;9.70;99.90
11242;DHT22;5678;52.370;9.006;2023-01-04T09:50:04;9.80;99.90
11242;DHT22;5678;52.370;9.006;2023-01-04T09:52:42;9.80;99.90
11242;DHT22;5678;52.370;9.006;2023-01-04T09:55:17;9.80;99.90
11242;DHT22;5678;52.370;9.006;2023-01-04T09:58:13;9.80;99.90
11242;DHT22;5678;52.370;9.006;2023-01-04T10:00:47;9.90;99.90
11242;DHT22;5678;52.370;9.006;2023-01-04T10:03:21;9.90;99.90
11242;DHT22;5678;52.370;9.006;2023-01-04T10:05:53;9.90;99.90
11242;DHT22;5678;52.370;9.006;2023-01-04T10:08:21;9.90;99.90
11242;DHT22;5678;52.370;9.006;2023-01-04T10:10:57;9.90;99.90
11242;DHT22;5678;52.370;9.006;2023-01-04T10:13:46;9.80;99.90
11242;DHT22;5678;52.370;9.006;2023-01-04T10:16:24;9.90;99.90
11242;DHT22;5678;52.370;9.006;2023-01-04T10:19:29;9.60;99.90
11242;DHT22;5678;52.370;9.006;2023-01-04T10:22:24;9.70;99.90
11242;DHT22;5678;52.370;9.006;2023-01-04T10:24:59;10.10;99.90
11242;DHT22;5678;52.370;9.006;2023-01-04T10:27:37;9.70;99.90
11242;DHT22;5678;52.370;9.006;2023-01-04T10:30:23;9.70;99.90
11242;DHT22;5678;52.370;9.006;2023-01-04T10:33:00;9.80;99.90
11242;DHT22;5678;52.370;9.006;2023-01-04T10:35:32;9.90;99.90
11242;DHT22;5678;52.370;9.006;2023-01-04T10:38:03;10.00;99.90
11242;DHT22;5678;52.370;9.006;2023-01-04T10:40:37;9.70;99.90
11242;DHT22;5678;52.370;9.006;2023-01-04T10:43:14;9.80;99.90
11242;DHT22;5678;52.370;9.006;2023-01-04T10:45:50;9.80;99.90
11242;DHT22;5678;52.370;9.006;2023-01-04T10:48:28;10.60;99.90
11242;DHT22;5678;52.370;9.006;2023-01-04T10:50:59;10.00;99.90
11242;DHT22;5678;52.370;9.006;2023-01-04T10:53:39;9.70;99.90
11242;DHT22;5678;52.370;9.006;2023-01-04T10:56:16;11.30;99.90
11242;DHT22;5678;52.370;9.006;2023-01-04T10:58:56;10.00;99.90
11242;DHT22;5678;52.370;9.006;2023-01-04T11:01:28;9.70;99.90
11242;DHT22;5678;52.370;9.006;2023-01-04T11:04:03;10.60;99.90
11242;DHT22;5678;52.370;9.006;2023-01-04T11:06:35;9.70;99.90
11242;DHT22;5678;52.370;9.006;2023-01-04T11:09:10;9.60;99.90
11242;DHT22;5678;52.370;9.006;2023-01-04T11:11:48;9.60;99.90
11242;DHT22;5678;52.370;9.006;2023-01-04T11:14:17;9.50;99.90
11242;DHT22;5678;52.370;9.006;2023-01-04T11:16:48;9.40;99.90
11242;DHT22;5678;52.370;9.006;2023-01-04T11:19:18;9.50;99.90
11242;DHT22;5678;52.370;9.006;2023-01-04T11:21:49;11.40;99.90
11242;DHT22;5678;52.370;9.006;2023-01-04T11:24:22;11.10;99.90
11242;DHT22;5678;52.370;9.006;2023-01-04T11:27:04;10.30;99.90
11242;DHT22;5678;52.370;9.006;2023-01-04T11:29:36;9.80;99.90
11242;DHT22;5678;52.370;9.006;2023-01-04T11:32:15;9.50;99.90
11242;DHT22;5678;52.370;9.006;2023-01-04T11:34:47;9.70;99.90
11242;DHT22;5678;52.370;9.006;2023-01-04T11:37:28;9.60;99.90
11242;DHT22;5678;52.370;9.006;2023-01-04T11:40:20;9.80;99.90
11242;DHT22;5678;52.370;9.006;2023-01-04T11:42:50;10.10;99.90
11242;DHT22;5678;52.370;9.006;2023-01-04T11:45:22;11.50;99.90
11242;DHT22;5678;52.370;9.006;2023-01-04T11:47:52;11.70;99.90
11242;DHT22;5678;52.370;9.006;2023-01-04T11:50:40;10.00;99.90
11242;DHT22;5678;52.370;9.006;2023-01-04T11:53:26;9.90;99.90
11242;DHT22;5678;52.370;9.006;2023-01-04T11:56:22;9.80;99.90
11242;DHT22;5678;52.370;9.006;2023-01-04T11:59:11;10.50;99.90
11242;DHT22;5678;52.370;9.006;2023-01-04T12:01:50;10.10;99.90
11242;DHT22;5678;52.370;9.006;2023-01-04T12:04:21;11.90;99.90
11242;DHT22;5678;52.370;9.006;2023-01-04T12:06:53;10.20;99.90
11242;DHT22;5678;52.370;9.006;2023-01-04T12:09:22;10.20;99.90
11242;DHT22;5678;52.370;9.006;2023-01-04T12:11:52;11.80;99.90
11242;DHT22;5678;52.370;9.006;2023-01-04T12:14:23;10.10;99.90
11242;DHT22;5678;52.370;9.006;2023-01-04T12:16:55;10.10;99.90
11242;DHT22;5678;52.370;9.006;2023-01-04T12:19:24;10.30;99.90
11242;DHT22;5678;52.370;9.006;2023-01-04T12:21:57;10.90;99.90
11242;DHT22;5678;52.370;9.006;2023-01-04T12:24:28;12.00;99.90
11242;DHT22;5678;52.370;9.006;2023-01-04T12:26:57;10.10;99.90
11242;DHT22;5678;52.370;9.006;2023-01-04T12:29:43;10.20;99.90
11242;DHT22;5678;52.370;9.006;2023-01-04T12:32:37;10.40;99.90
11242;DHT22;5678;52.370;9.006;2023-01-04T12:41:22;10.40;99.90
11242;DHT22;5678;52.370;9.006;2023-01-04T12:43:50;10.40;99.90
11242;DHT22;5678;52.370;9.006;2023-01-04T12:46:36;10.50;99.90
11242;DHT22;5678;52.370;9.006;2023-01-04T12:49:48;10.50;99.90
11242;DHT22;5678;52.370;9.006;2023-01-04T12:55:58;10.60;99.90
11242;DHT22;5678;52.370;9.006;2023-01-04T12:59:07;10.90;99.90
11242;DHT22;5678;52.370;9.006;2023-01-04T13:02:18;10.60;99.90
11242;DHT22;5678;52.370;9.006;2023-01-04T13:04:47;10.70;99.90
11242;DHT22;5678;52.370;9.006;2023-01-04T13:07:21;10.70;99.90
11242;DHT22;5678;52.370;9.006;2023-01-04T13:09:56;10.60;99.90
11242;DHT22;5678;52.370;9.006;2023-01-04T13:12:50;10.50;99.90
11242;DHT22;5678;52.370;9.006;2023-01-04T13:15:37;10.70;99.90
11242;DHT22;5678;52.370;9.006;2023-01-04T13:18:32;12.50;99.90
11242;DHT22;5678;52.370;9.006;2023-01-04T13:21:03;10.70;99.90
11242;DHT22;5678;52.370;9.006;2023-01-04T13:23:36;11.00;99.90
11242;DHT22;5678;52.370;9.006;2023-01-04T13:26:26;10.70;99.90
11242;DHT22;5678;52.370;9.006;2023-01-04T13:29:05;10.70;99.90
11242;DHT22;5678;52.370;9.006;2023-01-04T13:31:49;11.40;99.90
11242;DHT22;5678;52.370;9.006;2023-01-04T13:34:20;10.80;99.90
11242;DHT22;5678;52.370;9.006;2023-01-04T13:39:37;10.90;99.90
11242;DHT22;5678;52.370;9.006;2023-01-04T13:42:13;10.80;99.90
11242;DHT22;5678;52.370;9.006;2023-01-04T13:45:16;10.80;99.90
11242;DHT22;5678;52.370;9.006;2023-01-04T13:47:54;10.80;99.90
11242;DHT22;5678;52.370;9.006;2023-01-04T13:50:28;10.70;99.90
11242;DHT22;5678;52.370;9.006;2023-01-04T13:52:56;10.60;99.90
11242;DHT22;5678;52.370;9.006;2023-01-04T13:55:34;10.50;99.90
11242;DHT22;5678;52.370;9.006;2023-01-04T13:58:04;10.60;99.90
11242;DHT22;5678;52.370;9.006;2023-01-04T14:00:35;11.00;99.90
11242;DHT22;5678;52.370;9.006;2023-01-04T14:03:32;11.70;99.90
11242;DHT22;5678;52.370;9.006;2023-01-04T14:06:20;11.00;99.90
11242;DHT22;5678;52.370;9.006;2023-01-04T14:08:52;11.00;99.90
11242;DHT22;5678;52.370;9.006;2023-01-04T14:11:23;10.90;99.90
11242;DHT22;5678;52.370;9.006;2023-01-04T14:14:20;10.70;99.90
11242;DHT22;5678;52.370;9.006;2023-01-04T14:16:50;10.70;99.90
11242;DHT22;5678;52.370;9.006;2023-01-04T14:19:42;10.90;99.90
11242;DHT22;5678;52.370;9.006;2023-01-04T14:22:41;10.90;99.90
11242;DHT22;5678;52.370;9.006;2023-01-04T14:28:31;10.90;99.90
11242;DHT22;5678;52.370;9.006;2023-01-04T14:31:27;11.00;99.90
11242;DHT22;5678;52.370;9.006;2023-01-04T14:33:55;11.80;99.90
11242;DHT22;5678;52.370;9.006;2023-01-04T14:36:26;10.60;99.90
11242;DHT22;5678;52.370;9.006;2023-01-04T14:39:11;10.70;99.90
11242;DHT22;5678;52.370;9.006;2023-01-04T14:41:52;11.10;99.90
11242;DHT22;5678;52.370;9.006;2023-01-04T14:44:21;12.20;99.90
11242;DHT22;5678;52.370;9.006;2023-01-04T14:46:51;11.10;99.90
11242;DHT22;5678;52.370;9.006;2023-01-04T14:49:20;11.10;99.90
11242;DHT22;5678;52.370;9.006;2023-01-04T14:51:51;10.80;99.90
11242;DHT22;5678;52.370;9.006;2023-01-04T14:54:21;10.60;99.90
11242;DHT22;5678;52.370;9.006;2023-01-04T14:56:52;10.90;99.90
11242;DHT22;5678;52.370;9.006;2023-01-04T14:59:20;10.90;99.90
11242;DHT22;5678;52.370;9.006;2023-01-04T15:01:50;11.20;99.90
11242;DHT22;5678;52.370;9.006;2023-01-04T15:04:18;11.30;99.90
11242;DHT22;5678;52.370;9.006;2023-01-04T15:06:50;10.60;99.90
11242;DHT22;5678;52.370;9.006;2023-01-04T15:09:18;11.20;99.90
11242;DHT22;5678;52.370;9.006;2023-01-04T15:11:46;10.70;99.90
11242;DHT22;5678;52.370;9.006;2023-01-04T15:14:14;10.90;99.90
11242;DHT22;5678;52.370;9.006;2023-01-04T15:16:42;12.00;99.90
11242;DHT22;5678;52.370;9.006;2023-01-04T15:19:10;11.40;99.90
11242;DHT22;5678;52.370;9.006;2023-01-04T15:21:38;10.70;99.90
11242;DHT22;5678;52.370;9.006;2023-01-04T15:24:09;11.10;99.90
11242;DHT22;5678;52.370;9.006;2023-01-04T15:26:38;11.20;99.90
11242;DHT22;5678;52.370;9.006;2023-01-04T15:29:06;12.10;99.90
11242;DHT22;5678;52.370;9.006;2023-01-04T15:31:35;10.80;99.90
11242;DHT22;5678;52.370;9.006;2023-01-04T15:34:06;10.70;99.90
11242;DHT22;5678;52.370;9.006;2023-01-04T15:36:35;10.70;99.90
11242;DHT22;5678;52.370;9.006;2023-01-04T15:39:06;10.80;99.90
11242;DHT22;5678;52.370;9.006;2023-01-04T15:41:36;10.80;99.90
11242;DHT22;5678;52.370;9.006;2023-01-04T15:44:21;10.90;99.90
11242;DHT22;5678;52.370;9.006;2023-01-04T15:46:51;11.20;99.90
11242;DHT22;5678;52.370;9.006;2023-01-04T15:49:19;11.70;99.90
11242;DHT22;5678;52.370;9.006;2023-01-04T15:51:47;11.20;99.90
11242;DHT22;5678;52.370;9.006;2023-01-04T15:54:15;10.90;99.90
11242;DHT22;5678;52.370;9.006;2023-01-04T15:56:45;10.90;99.90
11242;DHT22;5678;52.370;9.006;2023-01-04T15:59:12;10.70;99.90
11242;DHT22;5678;52.370;9.006;2023-01-04T16:01:41;10.80;99.90
11242;DHT22;5678;52.370;9.006;2023-01-04T16:04:09;11.50;99.90
11242;DHT22;5678;52.370;9.006;2023-01-04T16:06:38;11.30;99.90
11242;DHT22;5678;52.370;9.006;2023-01-04T16:09:06;10.90;99.90
11242;DHT22;5678;52.370;9.006;2023-01-04T16:11:34;11.30;99.90
11242;DHT22;5678;52.370;9.006;2023-01-04T16:14:04;11.20;99.90
11242;DHT22;5678;52.370;9.006;2023-01-04T16:16:32;11.20;99.90
11242;DHT22;5678;52.370;9.006;2023-01-04T16:19:00;11.20;99.90
11242;DHT22;5678;52.370;9.006;2023-01-04T16:21:28;11.20;99.90
11242;DHT22;5678;52.370;9.006;2023-01-04T16:23:58;11.20;99.90
11242;DHT22;5678;52.370;9.006;2023-01-04T16:26:38;11.20;99.90
11242;DHT22;5678;52.370;9.006;2023-01-04T16:29:10;11.20;99.90
11242;DHT22;5678;52.370;9.006;2023-01-04T16:31:39;11.90;99.90
11242;DHT22;5678;52.370;9.006;2023-01-04T16:34:10;10.70;99.90
11242;DHT22;5678;52.370;9.006;2023-01-04T16:36:38;10.90;99.90
11242;DHT22;5678;52.370;9.006;2023-01-04T16:39:07;11.30;99.90
11242;DHT22;5678;52.370;9.006;2023-01-04T16:41:35;11.30;99.90
11242;DHT22;5678;52.370;9.006;2023-01-04T16:44:04;10.70;99.90
11242;DHT22;5678;52.370;9.006;2023-01-04T16:46:35;11.30;99.90
11242;DHT22;5678;52.370;9.006;2023-01-04T16:49:05;11.30;99.90
11242;DHT22;5678;52.370;9.006;2023-01-04T16:51:34;12.20;99.90
11242;DHT22;5678;52.370;9.006;2023-01-04T16:54:04;12.60;99.90
11242;DHT22;5678;52.370;9.006;2023-01-04T16:56:32;11.30;99.90